sensor_id;sensor_type;location;lat;lon;timestamp;temperature;humidity
57664;DHT22;43493;53.098;6.064;2023-05-29T00:00:16;10.50;99.90
57664;DHT22;43493;53.098;6.064;2023-05-29T00:02:44;10.40;99.90
57664;DHT22;43493;53.098;6.064;2023-05-29T00:05:11;10.40;99.90
57664;DHT22;43493;53.098;6.064;2023-05-29T00:07:38;10.40;99.90
57664;DHT22;43493;53.098;6.064;2023-05-29T00:10:05;10.50;99.90
57664;DHT22;43493;53.098;6.064;2023-05-29T00:12:32;10.40;99.90
57664;DHT22;43493;53.098;6.064;2023-05-29T00:14:57;10.40;99.90
57664;DHT22;43493;53.098;6.064;2023-05-29T00:17:23;10.40;99.90
57664;DHT22;43493;53.098;6.064;2023-05-29T00:19:50;10.40;99.90
57664;DHT22;43493;53.098;6.064;2023-05-29T00:22:16;10.40;99.90
57664;DHT22;43493;53.098;6.064;2023-05-29T00:24:42;10.40;99.90
57664;DHT22;43493;53.098;6.064;2023-05-29T00:27:08;10.30;99.90
57664;DHT22;43493;53.098;6.064;2023-05-29T00:29:34;10.30;99.90
57664;DHT22;43493;53.098;6.064;2023-05-29T00:32:01;10.30;99.90
57664;DHT22;43493;53.098;6.064;2023-05-29T00:34:27;10.30;99.90
57664;DHT22;43493;53.098;6.064;2023-05-29T00:36:53;10.20;99.90
57664;DHT22;43493;53.098;6.064;2023-05-29T00:39:21;10.20;99.90
57664;DHT22;43493;53.098;6.064;2023-05-29T00:41:47;10.20;99.90
57664;DHT22;43493;53.098;6.064;2023-05-29T00:44:18;10.20;99.90
57664;DHT22;43493;53.098;6.064;2023-05-29T00:46:44;10.20;99.90
57664;DHT22;43493;53.098;6.064;2023-05-29T00:49:10;10.10;99.90
57664;DHT22;43493;53.098;6.064;2023-05-29T00:51:37;10.10;99.90
57664;DHT22;43493;53.098;6.064;2023-05-29T00:54:05;10.10;99.90
57664;DHT22;43493;53.098;6.064;2023-05-29T00:56:33;10.10;99.90
57664;DHT22;43493;53.098;6.064;2023-05-29T00:59:00;10.00;99.90
57664;DHT22;43493;53.098;6.064;2023-05-29T01:01:25;10.00;99.90
57664;DHT22;43493;53.098;6.064;2023-05-29T01:03:55;10.10;99.90
57664;DHT22;43493;53.098;6.064;2023-05-29T01:06:21;10.10;99.90
57664;DHT22;43493;53.098;6.064;2023-05-29T01:08:46;10.00;99.90
57664;DHT22;43493;53.098;6.064;2023-05-29T01:13:53;10.00;99.90
57664;DHT22;43493;53.098;6.064;2023-05-29T01:16:30;10.00;99.90
57664;DHT22;43493;53.098;6.064;2023-05-29T01:22:19;10.00;99.90
57664;DHT22;43493;53.098;6.064;2023-05-29T01:24:58;10.00;99.90
57664;DHT22;43493;53.098;6.064;2023-05-29T01:27:30;10.00;99.90
57664;DHT22;43493;53.098;6.064;2023-05-29T01:29:58;9.90;99.90
57664;DHT22;43493;53.098;6.064;2023-05-29T01:32:24;9.90;99.90
57664;DHT22;43493;53.098;6.064;2023-05-29T01:34:51;9.90;99.90
57664;DHT22;43493;53.098;6.064;2023-05-29T01:37:17;10.00;99.90
57664;DHT22;43493;53.098;6.064;2023-05-29T01:39:42;10.00;99.90
57664;DHT22;43493;53.098;6.064;2023-05-29T01:42:08;10.00;99.90
57664;DHT22;43493;53.098;6.064;2023-05-29T01:44:36;10.00;99.90
57664;DHT22;43493;53.098;6.064;2023-05-29T01:47:03;10.00;99.90
57664;DHT22;43493;53.098;6.064;2023-05-29T01:49:29;10.10;99.90
57664;DHT22;43493;53.098;6.064;2023-05-29T01:51:57;10.10;99.90
57664;DHT22;43493;53.098;6.064;2023-05-29T01:54:23;10.00;99.90
57664;DHT22;43493;53.098;6.064;2023-05-29T01:56:49;10.00;99.90
57664;DHT22;43493;53.098;6.064;2023-05-29T01:59:15;10.00;99.90
57664;DHT22;43493;53.098;6.064;2023-05-29T02:01:41;9.90;99.90
57664;DHT22;43493;53.098;6.064;2023-05-29T02:04:07;9.90;99.90
57664;DHT22;43493;53.098;6.064;2023-05-29T02:06:33;9.80;99.90
57664;DHT22;43493;53.098;6.064;2023-05-29T02:08:59;9.80;99.90
57664;DHT22;43493;53.098;6.064;2023-05-29T02:11:25;9.80;99.90
57664;DHT22;43493;53.098;6.064;2023-05-29T02:13:51;9.90;99.90
57664;DHT22;43493;53.098;6.064;2023-05-29T02:16:18;9.90;99.90
57664;DHT22;43493;53.098;6.064;2023-05-29T02:18:46;10.00;99.90
57664;DHT22;43493;53.098;6.064;2023-05-29T02:21:12;10.00;99.90
57664;DHT22;43493;53.098;6.064;2023-05-29T02:23:38;10.00;99.90
57664;DHT22;43493;53.098;6.064;2023-05-29T02:26:04;10.00;99.90
57664;DHT22;43493;53.098;6.064;2023-05-29T02:28:30;10.10;99.90
57664;DHT22;43493;53.098;6.064;2023-05-29T02:30:56;10.00;99.90
57664;DHT22;43493;53.098;6.064;2023-05-29T02:33:21;10.00;99.90
57664;DHT22;43493;53.098;6.064;2023-05-29T02:35:47;10.00;99.90
57664;DHT22;43493;53.098;6.064;2023-05-29T02:38:13;10.00;99.90
57664;DHT22;43493;53.098;6.064;2023-05-29T02:40:39;9.90;99.90
57664;DHT22;43493;53.098;6.064;2023-05-29T02:43:05;9.90;99.90
57664;DHT22;43493;53.098;6.064;2023-05-29T02:45:31;9.90;99.90
57664;DHT22;43493;53.098;6.064;2023-05-29T02:47:57;9.90;99.90
57664;DHT22;43493;53.098;6.064;2023-05-29T02:50:23;9.90;99.90
57664;DHT22;43493;53.098;6.064;2023-05-29T02:52:48;9.90;99.90
57664;DHT22;43493;53.098;6.064;2023-05-29T02:55:15;10.00;99.90
57664;DHT22;43493;53.098;6.064;2023-05-29T02:57:40;10.00;99.90
57664;DHT22;43493;53.098;6.064;2023-05-29T03:00:07;10.00;99.90
57664;DHT22;43493;53.098;6.064;2023-05-29T03:02:33;10.00;99.90
57664;DHT22;43493;53.098;6.064;2023-05-29T03:05:00;10.00;99.90
57664;DHT22;43493;53.098;6.064;2023-05-29T03:07:26;10.00;99.90
57664;DHT22;43493;53.098;6.064;2023-05-29T03:09:53;10.00;99.90
57664;DHT22;43493;53.098;6.064;2023-05-29T03:12:19;10.10;99.90
57664;DHT22;43493;53.098;6.064;2023-05-29T03:14:44;10.00;99.90
57664;DHT22;43493;53.098;6.064;2023-05-29T03:17:10;10.10;99.90
57664;DHT22;43493;53.098;6.064;2023-05-29T03:19:36;10.10;99.90
57664;DHT22;43493;53.098;6.064;2023-05-29T03:22:04;10.10;99.90
57664;DHT22;43493;53.098;6.064;2023-05-29T03:24:30;10.10;99.90
57664;DHT22;43493;53.098;6.064;2023-05-29T03:26:55;10.10;99.90
57664;DHT22;43493;53.098;6.064;2023-05-29T03:29:21;10.10;99.90
57664;DHT22;43493;53.098;6.064;2023-05-29T03:31:47;10.20;99.90
57664;DHT22;43493;53.098;6.064;2023-05-29T03:34:13;10.20;99.90
57664;DHT22;43493;53.098;6.064;2023-05-29T03:36:39;10.20;99.90
57664;DHT22;43493;53.098;6.064;2023-05-29T03:39:05;10.20;99.90
57664;DHT22;43493;53.098;6.064;2023-05-29T03:41:31;10.20;99.90
57664;DHT22;43493;53.098;6.064;2023-05-29T03:43:57;10.20;99.90
57664;DHT22;43493;53.098;6.064;2023-05-29T03:46:23;10.20;99.90
57664;DHT22;43493;53.098;6.064;2023-05-29T03:48:48;10.20;99.90
57664;DHT22;43493;53.098;6.064;2023-05-29T03:51:14;10.30;99.90
57664;DHT22;43493;53.098;6.064;2023-05-29T03:53:40;10.30;99.90
57664;DHT22;43493;53.098;6.064;2023-05-29T03:56:06;10.30;99.90
57664;DHT22;43493;53.098;6.064;2023-05-29T03:58:32;10.30;99.90
57664;DHT22;43493;53.098;6.064;2023-05-29T04:00:57;10.30;99.90
57664;DHT22;43493;53.098;6.064;2023-05-29T04:03:23;10.30;99.90
57664;DHT22;43493;53.098;6.064;2023-05-29T04:05:49;10.40;99.90
57664;DHT22;43493;53.098;6.064;2023-05-29T04:08:15;10.40;99.90
57664;DHT22;43493;53.098;6.064;2023-05-29T04:10:41;10.40;99.90
57664;DHT22;43493;53.098;6.064;2023-05-29T04:13:06;10.40;99.90
57664;DHT22;43493;53.098;6.064;2023-05-29T04:15:32;10.50;99.90
57664;DHT22;43493;53.098;6.064;2023-05-29T04:18:01;10.50;99.90
57664;DHT22;43493;53.098;6.064;2023-05-29T04:20:27;10.50;99.90
57664;DHT22;43493;53.098;6.064;2023-05-29T04:22:53;10.50;99.90
57664;DHT22;43493;53.098;6.064;2023-05-29T04:25:18;10.50;99.90
57664;DHT22;43493;53.098;6.064;2023-05-29T04:27:45;10.60;99.90
57664;DHT22;43493;53.098;6.064;2023-05-29T04:30:15;10.60;99.90
57664;DHT22;43493;53.098;6.064;2023-05-29T04:32:42;10.70;99.90
57664;DHT22;43493;53.098;6.064;2023-05-29T04:35:08;10.70;99.90
57664;DHT22;43493;53.098;6.064;2023-05-29T04:37:35;10.80;99.90
57664;DHT22;43493;53.098;6.064;2023-05-29T04:40:07;10.90;99.90
57664;DHT22;43493;53.098;6.064;2023-05-29T04:42:37;10.90;99.90
57664;DHT22;43493;53.098;6.064;2023-05-29T04:45:05;10.90;99.90
57664;DHT22;43493;53.098;6.064;2023-05-29T04:47:30;11.00;99.90
57664;DHT22;43493;53.098;6.064;2023-05-29T04:49:59;11.10;99.90
57664;DHT22;43493;53.098;6.064;2023-05-29T04:52:26;11.10;99.90
57664;DHT22;43493;53.098;6.064;2023-05-29T04:54:51;11.10;99.90
57664;DHT22;43493;53.098;6.064;2023-05-29T04:57:17;11.10;99.90
57664;DHT22;43493;53.098;6.064;2023-05-29T04:59:43;11.20;99.90
57664;DHT22;43493;53.098;6.064;2023-05-29T05:02:09;11.20;99.90
57664;DHT22;43493;53.098;6.064;2023-05-29T05:04:34;11.30;99.90
57664;DHT22;43493;53.098;6.064;2023-05-29T05:07:00;11.30;99.90
57664;DHT22;43493;53.098;6.064;2023-05-29T05:09:27;11.40;99.90
57664;DHT22;43493;53.098;6.064;2023-05-29T05:11:53;11.40;99.90
57664;DHT22;43493;53.098;6.064;2023-05-29T05:14:19;11.50;99.90
57664;DHT22;43493;53.098;6.064;2023-05-29T05:16:44;11.50;99.90
57664;DHT22;43493;53.098;6.064;2023-05-29T05:19:10;11.60;99.90
57664;DHT22;43493;53.098;6.064;2023-05-29T05:21:36;11.70;99.90
57664;DHT22;43493;53.098;6.064;2023-05-29T05:24:02;11.90;99.90
57664;DHT22;43493;53.098;6.064;2023-05-29T05:26:28;11.90;99.90
57664;DHT22;43493;53.098;6.064;2023-05-29T05:28:53;12.10;99.90
57664;DHT22;43493;53.098;6.064;2023-05-29T05:31:19;12.10;99.90
57664;DHT22;43493;53.098;6.064;2023-05-29T05:33:45;12.30;99.90
57664;DHT22;43493;53.098;6.064;2023-05-29T05:36:11;12.40;99.90
57664;DHT22;43493;53.098;6.064;2023-05-29T05:38:37;12.60;99.90
57664;DHT22;43493;53.098;6.064;2023-05-29T05:41:02;12.70;99.90
57664;DHT22;43493;53.098;6.064;2023-05-29T05:43:28;12.70;99.90
57664;DHT22;43493;53.098;6.064;2023-05-29T05:45:55;12.70;99.90
57664;DHT22;43493;53.098;6.064;2023-05-29T05:48:21;13.00;99.90
57664;DHT22;43493;53.098;6.064;2023-05-29T05:50:46;13.30;99.90
57664;DHT22;43493;53.098;6.064;2023-05-29T05:53:12;13.30;99.90
57664;DHT22;43493;53.098;6.064;2023-05-29T05:55:38;13.40;99.90
57664;DHT22;43493;53.098;6.064;2023-05-29T05:58:03;13.40;99.90
57664;DHT22;43493;53.098;6.064;2023-05-29T06:00:29;13.30;99.90
57664;DHT22;43493;53.098;6.064;2023-05-29T06:02:55;13.40;99.90
57664;DHT22;43493;53.098;6.064;2023-05-29T06:05:21;13.60;99.90
57664;DHT22;43493;53.098;6.064;2023-05-29T06:07:46;13.60;99.90
57664;DHT22;43493;53.098;6.064;2023-05-29T06:10:12;13.60;99.90
57664;DHT22;43493;53.098;6.064;2023-05-29T06:12:38;13.70;99.90
57664;DHT22;43493;53.098;6.064;2023-05-29T06:15:04;14.00;99.90
57664;DHT22;43493;53.098;6.064;2023-05-29T06:17:31;14.40;99.90
57664;DHT22;43493;53.098;6.064;2023-05-29T06:19:57;14.60;99.90
57664;DHT22;43493;53.098;6.064;2023-05-29T06:22:23;14.70;99.90
57664;DHT22;43493;53.098;6.064;2023-05-29T06:24:48;15.00;99.90
57664;DHT22;43493;53.098;6.064;2023-05-29T06:27:14;15.10;99.90
57664;DHT22;43493;53.098;6.064;2023-05-29T06:29:40;15.30;99.90
57664;DHT22;43493;53.098;6.064;2023-05-29T06:32:06;14.90;99.90
57664;DHT22;43493;53.098;6.064;2023-05-29T06:34:32;14.50;99.90
57664;DHT22;43493;53.098;6.064;2023-05-29T06:36:57;14.20;99.90
57664;DHT22;43493;53.098;6.064;2023-05-29T06:39:23;13.90;99.90
57664;DHT22;43493;53.098;6.064;2023-05-29T06:41:49;13.90;99.90
57664;DHT22;43493;53.098;6.064;2023-05-29T06:44:15;14.00;99.90
57664;DHT22;43493;53.098;6.064;2023-05-29T06:46:40;14.10;99.90
57664;DHT22;43493;53.098;6.064;2023-05-29T06:49:06;14.10;99.90
57664;DHT22;43493;53.098;6.064;2023-05-29T06:51:33;14.20;99.90
57664;DHT22;43493;53.098;6.064;2023-05-29T06:53:59;14.40;99.90
57664;DHT22;43493;53.098;6.064;2023-05-29T06:56:24;14.70;99.90
57664;DHT22;43493;53.098;6.064;2023-05-29T06:58:51;14.90;99.90
57664;DHT22;43493;53.098;6.064;2023-05-29T07:01:17;15.40;99.90
57664;DHT22;43493;53.098;6.064;2023-05-29T07:03:43;15.80;99.90
57664;DHT22;43493;53.098;6.064;2023-05-29T07:06:09;16.10;96.00
57664;DHT22;43493;53.098;6.064;2023-05-29T07:08:35;16.10;96.20
57664;DHT22;43493;53.098;6.064;2023-05-29T07:11:01;16.20;95.90
57664;DHT22;43493;53.098;6.064;2023-05-29T07:13:27;16.60;96.80
57664;DHT22;43493;53.098;6.064;2023-05-29T07:15:53;17.00;93.50
57664;DHT22;43493;53.098;6.064;2023-05-29T07:18:19;17.00;91.90
57664;DHT22;43493;53.098;6.064;2023-05-29T07:20:44;16.70;90.70
57664;DHT22;43493;53.098;6.064;2023-05-29T07:23:10;16.40;92.30
57664;DHT22;43493;53.098;6.064;2023-05-29T07:25:36;16.30;90.80
57664;DHT22;43493;53.098;6.064;2023-05-29T07:28:01;16.30;93.30
57664;DHT22;43493;53.098;6.064;2023-05-29T07:30:27;16.30;93.40
57664;DHT22;43493;53.098;6.064;2023-05-29T07:32:53;16.40;90.70
57664;DHT22;43493;53.098;6.064;2023-05-29T07:35:19;16.50;90.70
57664;DHT22;43493;53.098;6.064;2023-05-29T07:37:44;16.50;91.50
57664;DHT22;43493;53.098;6.064;2023-05-29T07:40:10;16.90;90.90
57664;DHT22;43493;53.098;6.064;2023-05-29T07:42:36;17.00;91.00
57664;DHT22;43493;53.098;6.064;2023-05-29T07:45:02;17.10;91.10
57664;DHT22;43493;53.098;6.064;2023-05-29T07:47:27;17.30;88.10
57664;DHT22;43493;53.098;6.064;2023-05-29T07:49:53;16.90;82.80
57664;DHT22;43493;53.098;6.064;2023-05-29T07:52:19;17.10;86.50
57664;DHT22;43493;53.098;6.064;2023-05-29T07:54:44;17.10;84.30
57664;DHT22;43493;53.098;6.064;2023-05-29T07:57:10;17.10;82.90
57664;DHT22;43493;53.098;6.064;2023-05-29T07:59:37;17.10;81.00
57664;DHT22;43493;53.098;6.064;2023-05-29T08:02:03;17.10;82.30
57664;DHT22;43493;53.098;6.064;2023-05-29T08:04:29;17.50;80.40
57664;DHT22;43493;53.098;6.064;2023-05-29T08:06:56;17.50;78.60
57664;DHT22;43493;53.098;6.064;2023-05-29T08:09:21;17.60;79.50
57664;DHT22;43493;53.098;6.064;2023-05-29T08:11:47;17.60;74.30
57664;DHT22;43493;53.098;6.064;2023-05-29T08:14:16;18.00;75.90
57664;DHT22;43493;53.098;6.064;2023-05-29T08:16:42;18.20;73.50
57664;DHT22;43493;53.098;6.064;2023-05-29T08:19:08;18.30;70.90
57664;DHT22;43493;53.098;6.064;2023-05-29T08:21:34;18.40;64.90
57664;DHT22;43493;53.098;6.064;2023-05-29T08:24:01;18.30;68.50
57664;DHT22;43493;53.098;6.064;2023-05-29T08:26:27;18.40;68.20
57664;DHT22;43493;53.098;6.064;2023-05-29T08:28:53;18.30;67.20
57664;DHT22;43493;53.098;6.064;2023-05-29T08:31:20;18.10;70.20
57664;DHT22;43493;53.098;6.064;2023-05-29T08:33:45;17.90;70.90
57664;DHT22;43493;53.098;6.064;2023-05-29T08:36:11;17.80;71.70
57664;DHT22;43493;53.098;6.064;2023-05-29T08:38:37;17.60;68.10
57664;DHT22;43493;53.098;6.064;2023-05-29T08:41:03;17.20;72.10
57664;DHT22;43493;53.098;6.064;2023-05-29T08:43:33;17.00;74.30
57664;DHT22;43493;53.098;6.064;2023-05-29T08:46:01;16.90;79.30
57664;DHT22;43493;53.098;6.064;2023-05-29T08:48:29;16.60;77.80
57664;DHT22;43493;53.098;6.064;2023-05-29T08:50:56;16.20;81.30
57664;DHT22;43493;53.098;6.064;2023-05-29T08:53:23;16.00;87.10
57664;DHT22;43493;53.098;6.064;2023-05-29T08:55:50;15.90;88.20
57664;DHT22;43493;53.098;6.064;2023-05-29T08:58:18;15.80;90.10
57664;DHT22;43493;53.098;6.064;2023-05-29T09:00:46;15.70;91.30
57664;DHT22;43493;53.098;6.064;2023-05-29T09:03:12;15.70;92.90
57664;DHT22;43493;53.098;6.064;2023-05-29T09:05:41;15.70;93.20
57664;DHT22;43493;53.098;6.064;2023-05-29T09:08:11;15.60;94.10
57664;DHT22;43493;53.098;6.064;2023-05-29T09:10:44;15.60;94.30
57664;DHT22;43493;53.098;6.064;2023-05-29T09:13:11;15.60;95.10
57664;DHT22;43493;53.098;6.064;2023-05-29T09:15:40;15.50;95.30
57664;DHT22;43493;53.098;6.064;2023-05-29T09:18:09;15.40;95.70
57664;DHT22;43493;53.098;6.064;2023-05-29T09:20:35;15.30;96.60
57664;DHT22;43493;53.098;6.064;2023-05-29T09:23:05;15.20;97.30
57664;DHT22;43493;53.098;6.064;2023-05-29T09:25:34;15.10;96.90
57664;DHT22;43493;53.098;6.064;2023-05-29T09:28:05;15.00;97.20
57664;DHT22;43493;53.098;6.064;2023-05-29T09:30:40;15.10;97.10
57664;DHT22;43493;53.098;6.064;2023-05-29T09:33:15;15.00;97.40
57664;DHT22;43493;53.098;6.064;2023-05-29T09:35:49;15.10;96.70
57664;DHT22;43493;53.098;6.064;2023-05-29T09:38:17;15.20;97.50
57664;DHT22;43493;53.098;6.064;2023-05-29T09:40:43;15.30;96.90
57664;DHT22;43493;53.098;6.064;2023-05-29T09:43:13;15.40;96.50
57664;DHT22;43493;53.098;6.064;2023-05-29T09:45:44;15.30;96.40
57664;DHT22;43493;53.098;6.064;2023-05-29T09:48:18;15.30;96.80
57664;DHT22;43493;53.098;6.064;2023-05-29T09:50:45;15.30;97.20
57664;DHT22;43493;53.098;6.064;2023-05-29T09:53:24;15.30;97.80
57664;DHT22;43493;53.098;6.064;2023-05-29T09:55:51;15.30;98.20
57664;DHT22;43493;53.098;6.064;2023-05-29T09:58:24;15.30;98.70
57664;DHT22;43493;53.098;6.064;2023-05-29T10:00:52;15.40;98.40
57664;DHT22;43493;53.098;6.064;2023-05-29T10:03:18;15.60;98.40
57664;DHT22;43493;53.098;6.064;2023-05-29T10:05:50;15.70;96.80
57664;DHT22;43493;53.098;6.064;2023-05-29T10:08:18;15.70;95.10
57664;DHT22;43493;53.098;6.064;2023-05-29T10:10:47;15.50;95.70
57664;DHT22;43493;53.098;6.064;2023-05-29T10:13:15;15.60;96.30
57664;DHT22;43493;53.098;6.064;2023-05-29T10:15:45;15.60;95.90
57664;DHT22;43493;53.098;6.064;2023-05-29T10:18:26;15.70;96.80
57664;DHT22;43493;53.098;6.064;2023-05-29T10:20:55;15.80;96.80
57664;DHT22;43493;53.098;6.064;2023-05-29T10:23:25;15.80;96.90
57664;DHT22;43493;53.098;6.064;2023-05-29T10:25:59;15.80;95.50
57664;DHT22;43493;53.098;6.064;2023-05-29T10:28:31;15.80;96.40
57664;DHT22;43493;53.098;6.064;2023-05-29T10:31:13;15.90;96.90
57664;DHT22;43493;53.098;6.064;2023-05-29T10:36:19;15.70;95.00
57664;DHT22;43493;53.098;6.064;2023-05-29T10:38:50;15.70;96.30
57664;DHT22;43493;53.098;6.064;2023-05-29T10:43:54;15.70;97.00
57664;DHT22;43493;53.098;6.064;2023-05-29T10:46:20;15.60;98.10
57664;DHT22;43493;53.098;6.064;2023-05-29T10:48:49;15.60;98.60
57664;DHT22;43493;53.098;6.064;2023-05-29T10:51:28;15.60;98.90
57664;DHT22;43493;53.098;6.064;2023-05-29T10:53:56;15.60;97.80
57664;DHT22;43493;53.098;6.064;2023-05-29T10:56:24;15.50;96.70
57664;DHT22;43493;53.098;6.064;2023-05-29T10:58:58;15.50;97.60
57664;DHT22;43493;53.098;6.064;2023-05-29T11:01:30;15.60;98.00
57664;DHT22;43493;53.098;6.064;2023-05-29T11:06:43;15.70;97.90
57664;DHT22;43493;53.098;6.064;2023-05-29T11:12:35;15.70;97.00
57664;DHT22;43493;53.098;6.064;2023-05-29T11:15:20;15.80;97.30
57664;DHT22;43493;53.098;6.064;2023-05-29T11:17:46;15.80;98.00
57664;DHT22;43493;53.098;6.064;2023-05-29T11:20:33;15.90;98.00
57664;DHT22;43493;53.098;6.064;2023-05-29T11:23:03;15.80;97.40
57664;DHT22;43493;53.098;6.064;2023-05-29T11:25:33;15.80;97.80
57664;DHT22;43493;53.098;6.064;2023-05-29T11:27:59;15.70;97.70
57664;DHT22;43493;53.098;6.064;2023-05-29T11:30:26;15.70;98.50
57664;DHT22;43493;53.098;6.064;2023-05-29T11:32:52;15.80;99.00
57664;DHT22;43493;53.098;6.064;2023-05-29T11:35:21;15.90;98.40
57664;DHT22;43493;53.098;6.064;2023-05-29T11:37:47;15.90;97.60
57664;DHT22;43493;53.098;6.064;2023-05-29T11:40:15;15.80;97.00
57664;DHT22;43493;53.098;6.064;2023-05-29T11:42:45;15.70;97.60
57664;DHT22;43493;53.098;6.064;2023-05-29T11:45:21;15.70;98.70
57664;DHT22;43493;53.098;6.064;2023-05-29T11:48:01;15.70;98.90
57664;DHT22;43493;53.098;6.064;2023-05-29T11:50:32;15.70;99.00
57664;DHT22;43493;53.098;6.064;2023-05-29T11:52:59;15.60;99.40
57664;DHT22;43493;53.098;6.064;2023-05-29T11:55:26;15.70;98.70
57664;DHT22;43493;53.098;6.064;2023-05-29T11:57:56;15.60;98.80
57664;DHT22;43493;53.098;6.064;2023-05-29T12:00:23;15.50;97.80
57664;DHT22;43493;53.098;6.064;2023-05-29T12:02:51;15.50;97.40
57664;DHT22;43493;53.098;6.064;2023-05-29T12:05:17;15.50;98.10
57664;DHT22;43493;53.098;6.064;2023-05-29T12:07:51;15.60;98.20
57664;DHT22;43493;53.098;6.064;2023-05-29T12:10:19;15.60;98.80
57664;DHT22;43493;53.098;6.064;2023-05-29T12:12:50;15.70;98.80
57664;DHT22;43493;53.098;6.064;2023-05-29T12:15:16;15.70;97.70
57664;DHT22;43493;53.098;6.064;2023-05-29T12:17:44;15.80;98.80
57664;DHT22;43493;53.098;6.064;2023-05-29T12:20:11;15.80;98.30
57664;DHT22;43493;53.098;6.064;2023-05-29T12:22:39;15.90;96.80
57664;DHT22;43493;53.098;6.064;2023-05-29T12:27:44;15.80;96.50
57664;DHT22;43493;53.098;6.064;2023-05-29T12:30:13;15.80;95.80
57664;DHT22;43493;53.098;6.064;2023-05-29T12:32:47;15.80;96.20
57664;DHT22;43493;53.098;6.064;2023-05-29T12:38:02;15.90;93.90
57664;DHT22;43493;53.098;6.064;2023-05-29T12:40:29;15.80;96.30
57664;DHT22;43493;53.098;6.064;2023-05-29T12:45:24;15.80;93.00
57664;DHT22;43493;53.098;6.064;2023-05-29T12:47:53;15.80;94.90
57664;DHT22;43493;53.098;6.064;2023-05-29T12:50:27;15.90;95.20
57664;DHT22;43493;53.098;6.064;2023-05-29T12:53:14;15.90;94.20
57664;DHT22;43493;53.098;6.064;2023-05-29T12:55:42;15.80;94.10
57664;DHT22;43493;53.098;6.064;2023-05-29T12:58:15;15.70;95.80
57664;DHT22;43493;53.098;6.064;2023-05-29T13:00:45;15.70;94.60
57664;DHT22;43493;53.098;6.064;2023-05-29T13:03:11;15.70;95.80
57664;DHT22;43493;53.098;6.064;2023-05-29T13:05:37;15.70;95.40
57664;DHT22;43493;53.098;6.064;2023-05-29T13:08:03;15.60;93.50
57664;DHT22;43493;53.098;6.064;2023-05-29T13:10:32;15.70;91.20
57664;DHT22;43493;53.098;6.064;2023-05-29T13:13:00;15.70;93.00
57664;DHT22;43493;53.098;6.064;2023-05-29T13:15:26;15.60;93.70
57664;DHT22;43493;53.098;6.064;2023-05-29T13:17:52;15.70;92.70
57664;DHT22;43493;53.098;6.064;2023-05-29T13:20:19;15.60;93.20
57664;DHT22;43493;53.098;6.064;2023-05-29T13:22:46;15.60;93.70
57664;DHT22;43493;53.098;6.064;2023-05-29T13:25:14;15.60;94.80
57664;DHT22;43493;53.098;6.064;2023-05-29T13:27:45;15.70;95.20
57664;DHT22;43493;53.098;6.064;2023-05-29T13:30:12;15.70;93.30
57664;DHT22;43493;53.098;6.064;2023-05-29T13:32:38;15.60;93.50
57664;DHT22;43493;53.098;6.064;2023-05-29T13:35:04;15.70;93.20
57664;DHT22;43493;53.098;6.064;2023-05-29T13:37:31;15.60;94.10
57664;DHT22;43493;53.098;6.064;2023-05-29T13:39:57;15.60;95.30
57664;DHT22;43493;53.098;6.064;2023-05-29T13:42:22;15.70;96.50
57664;DHT22;43493;53.098;6.064;2023-05-29T13:44:49;15.80;97.10
57664;DHT22;43493;53.098;6.064;2023-05-29T13:47:15;15.80;97.80
57664;DHT22;43493;53.098;6.064;2023-05-29T13:49:42;15.90;97.50
57664;DHT22;43493;53.098;6.064;2023-05-29T13:52:08;15.90;97.90
57664;DHT22;43493;53.098;6.064;2023-05-29T13:54:34;15.90;97.70
57664;DHT22;43493;53.098;6.064;2023-05-29T13:57:03;15.80;97.40
57664;DHT22;43493;53.098;6.064;2023-05-29T13:59:35;15.80;97.10
57664;DHT22;43493;53.098;6.064;2023-05-29T14:02:01;15.80;97.20
57664;DHT22;43493;53.098;6.064;2023-05-29T14:04:31;15.70;96.70
57664;DHT22;43493;53.098;6.064;2023-05-29T14:06:57;15.80;96.30
57664;DHT22;43493;53.098;6.064;2023-05-29T14:09:23;15.70;95.80
57664;DHT22;43493;53.098;6.064;2023-05-29T14:11:58;15.60;95.70
57664;DHT22;43493;53.098;6.064;2023-05-29T14:14:24;15.50;94.50
57664;DHT22;43493;53.098;6.064;2023-05-29T14:16:50;15.50;96.40
57664;DHT22;43493;53.098;6.064;2023-05-29T14:19:20;15.50;96.80
57664;DHT22;43493;53.098;6.064;2023-05-29T14:21:46;15.50;94.30
57664;DHT22;43493;53.098;6.064;2023-05-29T14:24:12;15.60;94.30
57664;DHT22;43493;53.098;6.064;2023-05-29T14:26:38;15.60;93.80
57664;DHT22;43493;53.098;6.064;2023-05-29T14:29:04;15.60;93.50
57664;DHT22;43493;53.098;6.064;2023-05-29T14:31:31;15.60;93.80
57664;DHT22;43493;53.098;6.064;2023-05-29T14:33:57;15.60;92.00
57664;DHT22;43493;53.098;6.064;2023-05-29T14:36:23;15.60;88.80
57664;DHT22;43493;53.098;6.064;2023-05-29T14:38:48;15.50;90.00
57664;DHT22;43493;53.098;6.064;2023-05-29T14:41:15;15.50;90.70
57664;DHT22;43493;53.098;6.064;2023-05-29T14:43:42;15.50;88.30
57664;DHT22;43493;53.098;6.064;2023-05-29T14:46:08;15.50;89.30
57664;DHT22;43493;53.098;6.064;2023-05-29T14:48:34;15.50;90.70
57664;DHT22;43493;53.098;6.064;2023-05-29T14:51:00;15.50;90.40
57664;DHT22;43493;53.098;6.064;2023-05-29T14:53:26;15.60;90.10
57664;DHT22;43493;53.098;6.064;2023-05-29T14:55:52;15.70;90.30
57664;DHT22;43493;53.098;6.064;2023-05-29T14:58:18;15.70;85.20
57664;DHT22;43493;53.098;6.064;2023-05-29T15:00:44;15.60;88.60
57664;DHT22;43493;53.098;6.064;2023-05-29T15:03:09;15.60;90.60
57664;DHT22;43493;53.098;6.064;2023-05-29T15:05:35;15.60;89.60
57664;DHT22;43493;53.098;6.064;2023-05-29T15:08:01;15.60;90.60
57664;DHT22;43493;53.098;6.064;2023-05-29T15:10:27;15.60;88.20
57664;DHT22;43493;53.098;6.064;2023-05-29T15:12:53;15.60;90.30
57664;DHT22;43493;53.098;6.064;2023-05-29T15:15:28;15.60;91.40
57664;DHT22;43493;53.098;6.064;2023-05-29T15:17:55;15.70;92.10
57664;DHT22;43493;53.098;6.064;2023-05-29T15:20:24;15.70;91.90
57664;DHT22;43493;53.098;6.064;2023-05-29T15:22:51;15.70;91.40
57664;DHT22;43493;53.098;6.064;2023-05-29T15:25:19;15.70;91.70
57664;DHT22;43493;53.098;6.064;2023-05-29T15:27:45;15.70;91.30
57664;DHT22;43493;53.098;6.064;2023-05-29T15:30:16;15.50;91.80
57664;DHT22;43493;53.098;6.064;2023-05-29T15:32:43;15.40;92.60
57664;DHT22;43493;53.098;6.064;2023-05-29T15:35:13;15.40;92.80
57664;DHT22;43493;53.098;6.064;2023-05-29T15:37:40;15.40;93.30
57664;DHT22;43493;53.098;6.064;2023-05-29T15:40:06;15.20;93.80
57664;DHT22;43493;53.098;6.064;2023-05-29T15:42:32;15.30;94.60
57664;DHT22;43493;53.098;6.064;2023-05-29T15:44:58;15.30;95.30
57664;DHT22;43493;53.098;6.064;2023-05-29T15:47:24;15.30;95.00
57664;DHT22;43493;53.098;6.064;2023-05-29T15:49:51;15.20;95.50
57664;DHT22;43493;53.098;6.064;2023-05-29T15:52:17;15.20;95.60
57664;DHT22;43493;53.098;6.064;2023-05-29T15:54:42;15.20;95.40
57664;DHT22;43493;53.098;6.064;2023-05-29T15:57:08;15.10;96.30